createdAt,value
2019-02-15T00:00:57.180Z,51.81
2019-02-15T00:03:28.230Z,51.93
2019-02-15T00:05:59.228Z,51.73
2019-02-15T00:08:31.661Z,51.79
2019-02-15T00:11:03.214Z,51.81
2019-02-15T00:13:34.468Z,52.32
2019-02-15T00:16:05.863Z,52.14
2019-02-15T00:19:04.913Z,51.89
2019-02-15T00:21:47.509Z,52.70
2019-02-15T00:24:19.154Z,52.95
2019-02-15T00:26:50.697Z,52.83
2019-02-15T00:29:21.677Z,53.36
2019-02-15T00:31:53.264Z,53.05
2019-02-15T00:34:24.266Z,53.09
2019-02-15T00:36:55.290Z,52.64
2019-02-15T00:39:26.583Z,52.65
2019-02-15T00:41:57.816Z,52.54
2019-02-15T00:44:29.034Z,52.61
2019-02-15T00:47:19.283Z,52.69
2019-02-15T00:50:00.645Z,52.76
2019-02-15T00:52:45.643Z,53.08
2019-02-15T00:55:47.773Z,53.54
2019-02-15T00:58:36.683Z,53.56
2019-02-15T01:01:18.563Z,53.58
2019-02-15T01:04:06.612Z,53.70
2019-02-15T01:06:56.609Z,53.50
2019-02-15T01:09:44.255Z,53.77
2019-02-15T01:12:20.227Z,53.40
2019-02-15T01:14:51.531Z,53.65
2019-02-15T01:17:23.111Z,53.63
2019-02-15T01:19:54.675Z,53.70
2019-02-15T01:22:26.738Z,53.58
2019-02-15T01:24:58.266Z,54.16
2019-02-15T01:27:45.678Z,53.96
2019-02-15T01:30:38.791Z,53.51
2019-02-15T01:33:16.551Z,53.52
2019-02-15T01:36:01.642Z,53.61
2019-02-15T01:38:40.471Z,53.32
2019-02-15T01:41:20.956Z,53.39
2019-02-15T01:43:56.693Z,53.48
2019-02-15T01:46:31.924Z,53.49
2019-02-15T01:49:03.226Z,53.73
2019-02-15T01:51:35.392Z,53.61
2019-02-15T01:54:06.643Z,53.43
2019-02-15T01:56:37.992Z,53.59
2019-02-15T01:59:09.324Z,53.89
2019-02-15T02:01:40.588Z,53.88
2019-02-15T02:04:11.655Z,53.90
2019-02-15T02:06:42.974Z,54.20
2019-02-15T02:09:14.223Z,54.09
2019-02-15T02:11:45.520Z,54.30
2019-02-15T02:14:16.689Z,54.36
2019-02-15T02:16:48.486Z,53.96
2019-02-15T02:19:19.958Z,53.93
2019-02-15T02:21:50.995Z,53.89
2019-02-15T02:24:21.984Z,53.96
2019-02-15T02:26:53.256Z,54.52
2019-02-15T02:29:24.221Z,54.42
2019-02-15T02:31:55.865Z,54.43
2019-02-15T02:34:27.307Z,54.36
2019-02-15T02:36:59.543Z,54.53
2019-02-15T02:39:32.042Z,55.04
2019-02-15T02:42:03.001Z,54.50
2019-02-15T02:44:34.261Z,54.48
2019-02-15T02:47:05.298Z,54.28
2019-02-15T02:49:36.338Z,54.54
2019-02-15T02:52:07.559Z,54.27
2019-02-15T02:54:38.525Z,54.47
2019-02-15T02:57:09.959Z,54.34
2019-02-15T02:59:41.028Z,55.07
2019-02-15T03:02:11.991Z,54.65
2019-02-15T03:04:43.277Z,55.00
2019-02-15T03:07:14.619Z,55.14
2019-02-15T03:09:46.124Z,55.38
2019-02-15T03:12:17.086Z,55.01
2019-02-15T03:14:48.062Z,54.92
2019-02-15T03:17:19.293Z,54.87
2019-02-15T03:19:50.668Z,54.98
2019-02-15T03:22:21.708Z,55.64
2019-02-15T03:24:52.686Z,55.40
2019-02-15T03:27:24.485Z,55.21
2019-02-15T03:29:56.553Z,55.82
2019-02-15T03:32:28.074Z,56.28
2019-02-15T03:34:59.073Z,56.31
2019-02-15T03:37:40.535Z,55.82
2019-02-15T03:40:16.803Z,55.73
2019-02-15T03:42:48.090Z,55.36
2019-02-15T03:45:19.701Z,55.75
2019-02-15T03:47:50.738Z,55.91
2019-02-15T03:50:22.494Z,55.90
2019-02-15T03:52:53.642Z,55.81
2019-02-15T03:55:25.180Z,56.33
2019-02-15T03:57:56.455Z,56.57
2019-02-15T04:00:27.810Z,56.82
2019-02-15T04:02:58.776Z,57.10
2019-02-15T04:05:30.191Z,56.38
2019-02-15T04:08:02.465Z,56.47
2019-02-15T04:10:33.450Z,56.37
2019-02-15T04:13:04.455Z,55.47
2019-02-15T04:15:36.157Z,55.62
2019-02-15T04:18:07.849Z,55.68
2019-02-15T04:20:38.935Z,55.91
2019-02-15T04:23:09.906Z,56.43
2019-02-15T04:25:41.213Z,55.98
2019-02-15T04:28:12.544Z,55.97
2019-02-15T04:30:43.975Z,55.94
2019-02-15T04:33:15.245Z,55.80
2019-02-15T04:35:46.271Z,55.66
2019-02-15T04:38:17.335Z,55.74
2019-02-15T04:40:48.293Z,55.98
2019-02-15T04:43:19.256Z,55.79
2019-02-15T04:45:50.400Z,55.58
2019-02-15T04:48:21.380Z,55.88
2019-02-15T04:50:52.706Z,55.82
2019-02-15T04:53:24.005Z,55.47
2019-02-15T04:55:56.042Z,55.49
2019-02-15T04:58:27.043Z,55.47
2019-02-15T05:00:58.317Z,55.53
2019-02-15T05:03:29.717Z,55.42
2019-02-15T05:06:01.248Z,56.05
2019-02-15T05:08:32.372Z,57.05
2019-02-15T05:11:03.350Z,56.96
2019-02-15T05:13:34.959Z,56.40
2019-02-15T05:16:06.255Z,56.38
2019-02-15T05:18:37.746Z,55.96
2019-02-15T05:21:09.309Z,56.01
2019-02-15T05:23:40.595Z,56.40
2019-02-15T05:26:11.894Z,56.12
2019-02-15T05:28:42.973Z,56.09
2019-02-15T05:31:14.193Z,56.11
2019-02-15T05:33:45.569Z,56.01
2019-02-15T05:36:17.439Z,56.04
2019-02-15T05:38:48.704Z,56.06
2019-02-15T05:41:20.398Z,55.72
2019-02-15T05:43:51.853Z,56.24
2019-02-15T05:46:23.130Z,56.84
2019-02-15T05:48:54.096Z,56.50
2019-02-15T05:51:25.120Z,56.03
2019-02-15T05:53:56.110Z,55.77
2019-02-15T05:56:27.098Z,55.96
2019-02-15T05:58:58.114Z,56.16
2019-02-15T06:01:30.125Z,56.03
2019-02-15T06:04:01.115Z,55.99
2019-02-15T06:06:32.864Z,55.83
2019-02-15T06:09:04.848Z,55.91
2019-02-15T06:11:35.809Z,56.14
2019-02-15T06:14:07.115Z,55.94
2019-02-15T06:16:38.772Z,55.81
2019-02-15T06:19:10.453Z,55.96
2019-02-15T06:21:42.075Z,55.89
2019-02-15T06:24:13.105Z,56.76
2019-02-15T06:26:44.288Z,57.15
2019-02-15T06:29:15.927Z,56.57
2019-02-15T06:31:47.277Z,56.76
2019-02-15T06:34:18.618Z,56.76
2019-02-15T06:36:49.657Z,56.83
2019-02-15T06:39:21.207Z,56.84
2019-02-15T06:41:52.499Z,57.02
2019-02-15T06:44:23.485Z,57.02
2019-02-15T06:46:55.169Z,57.01
2019-02-15T06:49:26.176Z,56.82
2019-02-15T06:51:58.128Z,57.42
2019-02-15T06:54:29.087Z,57.53
2019-02-15T06:57:00.443Z,57.03
2019-02-15T06:59:43.772Z,56.97
2019-02-15T07:02:19.235Z,57.31
2019-02-15T07:05:08.286Z,57.15
2019-02-15T07:07:39.534Z,57.79
2019-02-15T07:10:10.800Z,58.02
2019-02-15T07:12:42.288Z,58.20
2019-02-15T07:15:14.150Z,58.36
2019-02-15T07:17:46.141Z,57.71
2019-02-15T07:20:18.201Z,57.80
2019-02-15T07:22:50.929Z,57.94
2019-02-15T07:25:21.977Z,57.67
2019-02-15T07:27:52.961Z,57.76
2019-02-15T07:30:24.030Z,57.62
2019-02-15T07:32:55.244Z,58.30
2019-02-15T07:35:26.553Z,58.03
2019-02-15T07:37:57.677Z,57.60
2019-02-15T07:40:28.897Z,57.48
2019-02-15T07:42:59.921Z,57.93
2019-02-15T07:45:31.243Z,57.64
2019-02-15T07:48:03.459Z,57.09
2019-02-15T07:50:34.742Z,57.00
2019-02-15T07:53:05.934Z,56.92
2019-02-15T07:55:39.534Z,56.40
2019-02-15T07:58:11.292Z,56.12
2019-02-15T08:00:42.601Z,56.28
2019-02-15T08:03:13.927Z,56.36
2019-02-15T08:05:45.492Z,56.12
2019-02-15T08:08:17.678Z,55.20
2019-02-15T08:10:48.879Z,54.97
2019-02-15T08:13:19.821Z,54.71
2019-02-15T08:15:52.265Z,54.38
2019-02-15T08:18:23.841Z,55.09
2019-02-15T08:20:56.110Z,55.40
2019-02-15T08:23:27.576Z,55.15
2019-02-15T08:25:58.899Z,54.16
2019-02-15T08:28:30.281Z,53.64
2019-02-15T08:31:01.338Z,52.51
2019-02-15T08:33:33.197Z,52.33
2019-02-15T08:36:04.725Z,52.33
2019-02-15T08:38:35.992Z,52.49
2019-02-15T08:41:07.633Z,52.76
2019-02-15T08:43:38.785Z,52.59
2019-02-15T08:46:10.147Z,51.99
2019-02-15T08:48:46.362Z,51.94
2019-02-15T08:51:14.756Z,50.14
2019-02-15T08:53:46.024Z,50.39
2019-02-15T08:56:18.160Z,50.67
2019-02-15T08:58:50.064Z,49.72
2019-02-15T09:01:21.670Z,49.43
2019-02-15T09:03:53.375Z,48.29
2019-02-15T09:06:24.601Z,47.89
2019-02-15T09:08:55.834Z,48.43
2019-02-15T09:11:30.392Z,48.62
2019-02-15T09:14:01.806Z,47.15
2019-02-15T09:16:33.584Z,46.51
2019-02-15T09:19:04.628Z,45.17
2019-02-15T09:21:35.862Z,44.19
2019-02-15T09:24:06.843Z,43.91
2019-02-15T09:26:37.828Z,43.69
2019-02-15T09:29:10.550Z,43.60
2019-02-15T09:31:42.062Z,43.54
2019-02-15T09:34:13.748Z,41.47
2019-02-15T09:36:45.068Z,41.44
2019-02-15T09:39:16.033Z,41.57
2019-02-15T09:41:47.104Z,41.96
2019-02-15T09:44:18.076Z,42.01
2019-02-15T09:46:50.165Z,40.64
2019-02-15T09:49:22.234Z,40.76
2019-02-15T09:51:55.573Z,40.61
2019-02-15T09:54:26.678Z,39.91
2019-02-15T09:56:57.712Z,39.39
2019-02-15T09:59:28.966Z,39.42
2019-02-15T10:02:00.604Z,38.66
2019-02-15T10:04:33.036Z,39.25
2019-02-15T10:07:05.367Z,39.23
2019-02-15T10:09:37.088Z,39.39
2019-02-15T10:12:08.701Z,39.96
2019-02-15T10:14:39.701Z,40.71
2019-02-15T10:17:10.985Z,41.00
2019-02-15T10:19:42.516Z,41.20
2019-02-15T10:22:14.082Z,41.18
2019-02-15T10:24:45.421Z,41.22
2019-02-15T10:27:16.471Z,41.25
2019-02-15T10:29:47.442Z,40.59
2019-02-15T10:32:18.746Z,39.79
2019-02-15T10:34:49.805Z,38.50
2019-02-15T10:37:20.838Z,38.35
2019-02-15T10:39:52.263Z,38.52
2019-02-15T10:42:23.310Z,38.58
2019-02-15T10:44:54.365Z,38.16
2019-02-15T10:47:25.547Z,38.32
2019-02-15T10:49:57.007Z,39.05
2019-02-15T10:52:27.983Z,39.01
2019-02-15T10:54:59.030Z,39.07
2019-02-15T10:57:30.012Z,38.67
2019-02-15T11:00:01.725Z,38.60
2019-02-15T11:02:33.808Z,38.59
2019-02-15T11:05:05.208Z,38.76
2019-02-15T11:07:36.797Z,38.89
2019-02-15T11:10:08.561Z,38.41
2019-02-15T11:12:39.898Z,39.16
2019-02-15T11:15:12.447Z,38.47
2019-02-15T11:17:43.865Z,39.19
2019-02-15T11:20:15.423Z,38.13
2019-02-15T11:22:47.047Z,37.93
2019-02-15T11:25:18.917Z,37.95
2019-02-15T11:27:50.656Z,38.52
2019-02-15T11:30:21.897Z,37.40
2019-02-15T11:32:53.119Z,34.44
2019-02-15T11:35:24.695Z,34.26
2019-02-15T11:37:55.762Z,33.25
2019-02-15T11:40:26.738Z,33.55
2019-02-15T11:42:57.731Z,33.92
2019-02-15T11:45:28.883Z,32.18
2019-02-15T11:47:59.928Z,31.81
2019-02-15T11:50:31.166Z,30.89
2019-02-15T11:53:02.325Z,29.98
2019-02-15T11:55:33.866Z,30.31
2019-02-15T11:58:04.923Z,30.08
2019-02-15T12:00:36.558Z,30.28
2019-02-15T12:03:07.538Z,30.81
2019-02-15T12:05:38.867Z,30.13
2019-02-15T12:08:10.337Z,29.76
2019-02-15T12:10:41.557Z,30.21
2019-02-15T12:13:12.847Z,29.54
2019-02-15T12:15:43.901Z,29.72
2019-02-15T12:18:15.149Z,30.46
2019-02-15T12:20:47.226Z,30.64
2019-02-15T12:23:19.519Z,29.11
2019-02-15T12:25:50.550Z,28.79
2019-02-15T12:28:21.782Z,27.90
2019-02-15T12:30:53.344Z,28.65
2019-02-15T12:33:24.587Z,29.72
2019-02-15T12:35:55.939Z,28.40
2019-02-15T12:38:27.286Z,28.42
2019-02-15T12:40:58.418Z,28.52
2019-02-15T12:43:29.491Z,28.20
2019-02-15T12:46:01.576Z,28.65
2019-02-15T12:48:34.076Z,27.96
2019-02-15T12:51:06.006Z,27.51
2019-02-15T12:53:37.629Z,26.90
2019-02-15T12:56:08.903Z,27.53
2019-02-15T12:58:40.530Z,27.20
2019-02-15T13:01:12.083Z,27.23
2019-02-15T13:03:43.404Z,27.82
2019-02-15T13:06:14.678Z,27.49
2019-02-15T13:08:46.067Z,27.93
2019-02-15T13:11:17.770Z,28.22
2019-02-15T13:13:48.760Z,28.43
2019-02-15T13:16:20.001Z,28.22
2019-02-15T13:18:51.532Z,27.74
2019-02-15T13:21:22.813Z,28.19
2019-02-15T13:23:54.034Z,27.38
2019-02-15T13:26:25.619Z,27.28
2019-02-15T13:28:56.916Z,27.24
2019-02-15T13:31:28.492Z,27.29
2019-02-15T13:33:59.831Z,27.46
2019-02-15T13:36:31.083Z,27.11
2019-02-15T13:39:02.382Z,27.52
2019-02-15T13:41:34.688Z,27.36
2019-02-15T13:44:05.861Z,27.36
2019-02-15T13:46:37.287Z,26.96
2019-02-15T13:49:08.361Z,27.31
2019-02-15T13:51:39.593Z,27.48
2019-02-15T13:54:10.586Z,27.77
2019-02-15T13:56:42.102Z,27.57
2019-02-15T13:59:13.374Z,27.84
2019-02-15T14:01:44.901Z,27.54
2019-02-15T14:04:16.361Z,27.35
2019-02-15T14:06:57.694Z,27.61
2019-02-15T14:09:28.751Z,27.73
2019-02-15T14:12:00.252Z,27.89
2019-02-15T14:14:31.274Z,27.85
2019-02-15T14:17:03.160Z,27.99
2019-02-15T14:19:34.250Z,27.71
2019-02-15T14:22:06.027Z,27.85
2019-02-15T14:24:37.682Z,28.01
2019-02-15T14:27:08.633Z,28.46
2019-02-15T14:29:40.246Z,28.64
2019-02-15T14:32:11.696Z,28.79
2019-02-15T14:34:42.960Z,28.71
2019-02-15T14:37:14.197Z,28.90
2019-02-15T14:39:45.186Z,28.28
2019-02-15T14:42:16.292Z,27.34
2019-02-15T14:44:47.857Z,27.41
2019-02-15T14:47:19.399Z,27.36
2019-02-15T14:49:50.469Z,27.10
2019-02-15T14:52:22.087Z,27.31
2019-02-15T14:54:53.140Z,27.74
2019-02-15T14:57:24.478Z,28.13
2019-02-15T14:59:55.844Z,27.23
2019-02-15T15:02:27.311Z,27.74
2019-02-15T15:04:58.356Z,27.63
2019-02-15T15:07:29.645Z,27.60
2019-02-15T15:10:00.671Z,27.60
2019-02-15T15:12:31.673Z,27.50
2019-02-15T15:15:03.472Z,26.93
2019-02-15T15:17:34.539Z,27.19
2019-02-15T15:20:06.581Z,26.92
2019-02-15T15:22:38.146Z,26.86
2019-02-15T15:25:10.919Z,26.56
2019-02-15T15:27:42.092Z,26.53
2019-02-15T15:30:13.602Z,26.75
2019-02-15T15:32:44.812Z,26.79
2019-02-15T15:35:15.972Z,26.79
2019-02-15T15:37:46.932Z,26.63
2019-02-15T15:40:19.441Z,26.52
2019-02-15T15:42:50.472Z,26.33
2019-02-15T15:45:21.908Z,25.72
2019-02-15T15:47:52.909Z,26.14
2019-02-15T15:50:24.287Z,26.06
2019-02-15T15:52:55.867Z,25.94
2019-02-15T15:55:26.998Z,26.27
2019-02-15T15:57:58.036Z,26.35
2019-02-15T16:00:38.451Z,26.51
2019-02-15T16:03:01.923Z,26.85
2019-02-15T16:05:33.469Z,26.92
2019-02-15T16:08:04.504Z,27.09
2019-02-15T16:10:35.558Z,27.20
2019-02-15T16:13:07.266Z,27.01
2019-02-15T16:15:38.280Z,27.16
2019-02-15T16:18:09.356Z,27.26
2019-02-15T16:20:41.037Z,27.58
2019-02-15T16:23:12.357Z,28.00
2019-02-15T16:25:44.074Z,28.05
2019-02-15T16:28:15.082Z,28.20
2019-02-15T16:30:46.431Z,28.67
2019-02-15T16:33:17.463Z,28.80
2019-02-15T16:35:48.521Z,28.96
2019-02-15T16:38:19.534Z,29.25
2019-02-15T16:40:51.080Z,29.52
2019-02-15T16:43:22.756Z,29.33
2019-02-15T16:45:53.829Z,29.22
2019-02-15T16:48:25.135Z,29.59
2019-02-15T16:50:56.551Z,29.56
2019-02-15T16:53:27.822Z,30.31
2019-02-15T16:55:59.041Z,30.86
2019-02-15T16:58:30.327Z,31.25
2019-02-15T17:01:02.803Z,31.62
2019-02-15T17:03:34.791Z,31.77
2019-02-15T17:06:05.941Z,31.80
2019-02-15T17:08:36.965Z,31.73
2019-02-15T17:11:08.291Z,31.67
2019-02-15T17:13:39.795Z,30.57
2019-02-15T17:16:11.554Z,30.53
2019-02-15T17:18:51.486Z,30.83
2019-02-15T17:21:16.175Z,31.18
2019-02-15T17:23:48.409Z,30.90
2019-02-15T17:26:20.200Z,30.96
2019-02-15T17:28:51.203Z,31.27
2019-02-15T17:31:22.472Z,31.56
2019-02-15T17:33:54.012Z,32.38
2019-02-15T17:36:25.509Z,32.70
2019-02-15T17:38:56.827Z,33.13
2019-02-15T17:41:28.225Z,33.73
2019-02-15T17:43:59.507Z,34.04
2019-02-15T17:46:30.602Z,34.14
2019-02-15T17:49:03.404Z,34.58
2019-02-15T17:51:34.996Z,35.11
2019-02-15T17:54:06.115Z,35.54
2019-02-15T17:56:37.540Z,35.80
2019-02-15T17:59:08.864Z,36.16
2019-02-15T18:01:40.823Z,36.65
2019-02-15T18:04:12.140Z,36.89
2019-02-15T18:06:43.378Z,37.15
2019-02-15T18:09:14.589Z,37.40
2019-02-15T18:11:45.981Z,37.69
2019-02-15T18:14:16.994Z,37.87
2019-02-15T18:16:48.172Z,38.29
2019-02-15T18:19:20.033Z,38.46
2019-02-15T18:21:51.305Z,39.16
2019-02-15T18:24:23.073Z,38.91
2019-02-15T18:26:54.378Z,38.89
2019-02-15T18:29:26.137Z,39.11
2019-02-15T18:31:57.139Z,39.50
2019-02-15T18:34:28.235Z,39.65
2019-02-15T18:36:59.724Z,40.14
2019-02-15T18:39:30.939Z,40.05
2019-02-15T18:42:02.833Z,39.78
2019-02-15T18:44:34.143Z,39.52
2019-02-15T18:47:05.643Z,39.61
2019-02-15T18:49:37.147Z,39.94
2019-02-15T18:52:08.189Z,40.21
2019-02-15T18:54:39.614Z,40.21
2019-02-15T18:57:11.194Z,40.71
2019-02-15T18:59:42.730Z,40.49
2019-02-15T19:02:14.151Z,40.28
2019-02-15T19:04:45.144Z,40.03
2019-02-15T19:07:16.788Z,40.81
2019-02-15T19:09:47.849Z,40.72
2019-02-15T19:12:19.357Z,40.74
2019-02-15T19:14:50.377Z,40.56
2019-02-15T19:17:21.384Z,40.51
2019-02-15T19:19:52.424Z,40.49
2019-02-15T19:22:23.950Z,40.52
2019-02-15T19:24:55.179Z,40.54
2019-02-15T19:27:26.802Z,40.50
2019-02-15T19:29:58.123Z,40.95
2019-02-15T19:32:29.303Z,40.81
2019-02-15T19:35:00.313Z,41.12
2019-02-15T19:37:32.610Z,41.16
2019-02-15T19:40:03.855Z,41.50
2019-02-15T19:42:36.141Z,41.50
2019-02-15T19:45:09.456Z,41.48
2019-02-15T19:47:40.675Z,41.17
2019-02-15T19:50:14.131Z,41.49
2019-02-15T19:52:46.116Z,41.32
2019-02-15T19:55:17.516Z,41.49
2019-02-15T19:57:49.482Z,41.37
2019-02-15T20:00:21.811Z,41.46
2019-02-15T20:02:52.837Z,41.47
2019-02-15T20:05:23.803Z,41.31
2019-02-15T20:07:55.797Z,41.26
2019-02-15T20:10:27.329Z,41.03
2019-02-15T20:12:58.335Z,41.10
2019-02-15T20:15:29.358Z,41.24
2019-02-15T20:18:00.418Z,41.32
2019-02-15T20:20:31.514Z,41.47
2019-02-15T20:23:02.526Z,41.51
2019-02-15T20:25:33.926Z,41.66
2019-02-15T20:28:13.657Z,41.42
2019-02-15T20:30:38.883Z,41.61
2019-02-15T20:33:10.577Z,41.23
2019-02-15T20:35:41.631Z,41.46
2019-02-15T20:38:12.949Z,41.57
2019-02-15T20:40:44.284Z,41.64
2019-02-15T20:43:15.705Z,41.68
2019-02-15T20:45:46.689Z,41.73
2019-02-15T20:48:18.020Z,41.85
2019-02-15T20:50:49.296Z,42.04
2019-02-15T20:53:20.331Z,42.05
2019-02-15T20:55:51.931Z,42.17
2019-02-15T20:58:22.972Z,42.27
2019-02-15T21:00:56.148Z,42.12
2019-02-15T21:03:27.488Z,41.96
2019-02-15T21:05:58.610Z,41.70
2019-02-15T21:08:29.819Z,41.94
2019-02-15T21:11:00.974Z,41.95
2019-02-15T21:13:32.340Z,42.00
2019-02-15T21:16:03.641Z,41.90
2019-02-15T21:18:36.793Z,41.73
2019-02-15T21:21:08.139Z,42.39
2019-02-15T21:23:39.219Z,42.53
2019-02-15T21:26:10.860Z,42.58
2019-02-15T21:28:42.227Z,42.70
2019-02-15T21:31:13.471Z,42.34
2019-02-15T21:33:44.820Z,42.73
2019-02-15T21:36:17.211Z,42.55
2019-02-15T21:38:48.387Z,42.59
2019-02-15T21:41:19.711Z,43.00
2019-02-15T21:43:50.781Z,42.85
2019-02-15T21:46:23.507Z,42.74
2019-02-15T21:48:55.019Z,42.90
2019-02-15T21:51:26.366Z,43.15
2019-02-15T21:53:57.510Z,43.09
2019-02-15T21:56:28.515Z,43.38
2019-02-15T21:58:59.584Z,43.29
2019-02-15T22:01:30.897Z,43.42
2019-02-15T22:04:02.163Z,43.71
2019-02-15T22:06:33.380Z,43.73
2019-02-15T22:09:06.462Z,44.20
2019-02-15T22:11:38.500Z,44.34
2019-02-15T22:14:09.492Z,44.43
2019-02-15T22:16:40.530Z,44.00
2019-02-15T22:19:11.521Z,44.52
2019-02-15T22:21:42.799Z,44.87
2019-02-15T22:24:14.368Z,44.69
2019-02-15T22:26:45.412Z,44.93
2019-02-15T22:29:16.754Z,45.47
2019-02-15T22:31:47.749Z,45.46
2019-02-15T22:34:19.237Z,46.23
2019-02-15T22:36:50.482Z,46.18
2019-02-15T22:39:21.453Z,46.82
2019-02-15T22:41:52.769Z,46.93
2019-02-15T22:44:23.879Z,46.19
2019-02-15T22:46:55.224Z,47.26
2019-02-15T22:49:26.507Z,47.58
2019-02-15T22:51:58.148Z,47.43
2019-02-15T22:54:29.118Z,47.60
2019-02-15T22:57:00.446Z,47.43
2019-02-15T22:59:31.526Z,48.21
2019-02-15T23:02:02.565Z,47.52
2019-02-15T23:04:33.789Z,47.39
2019-02-15T23:07:04.821Z,47.35
2019-02-15T23:09:36.809Z,46.92
2019-02-15T23:12:07.833Z,47.48
2019-02-15T23:14:38.878Z,47.24
2019-02-15T23:17:10.418Z,47.07
2019-02-15T23:19:41.428Z,47.30
2019-02-15T23:22:12.674Z,47.49
2019-02-15T23:24:43.664Z,47.33
2019-02-15T23:27:14.890Z,47.04
2019-02-15T23:29:45.858Z,47.23
2019-02-15T23:32:17.104Z,47.31
2019-02-15T23:34:48.074Z,47.70
2019-02-15T23:37:19.181Z,47.90
2019-02-15T23:39:50.155Z,48.12
2019-02-15T23:42:21.449Z,48.17
2019-02-15T23:44:52.416Z,47.81
2019-02-15T23:47:24.665Z,47.75
2019-02-15T23:49:55.702Z,48.05
2019-02-15T23:52:27.017Z,48.05
2019-02-15T23:54:58.292Z,47.82
2019-02-15T23:57:29.347Z,48.38
